sensor_id;sensor_type;location;lat;lon;timestamp;pressure;altitude;pressure_sealevel;temperature;humidity
51759;BME280;66684;47.568;18.734;2023-01-15T00:01:27;99764.91;;;0.75;100.00
51759;BME280;66684;47.568;18.734;2023-01-15T00:03:55;99759.31;;;0.89;100.00
51759;BME280;66684;47.568;18.734;2023-01-15T00:06:22;99763.91;;;0.83;100.00
51759;BME280;66684;47.568;18.734;2023-01-15T00:08:49;99759.41;;;0.91;100.00
51759;BME280;66684;47.568;18.734;2023-01-15T00:11:15;99756.87;;;0.80;100.00
51759;BME280;66684;47.568;18.734;2023-01-15T00:13:41;99765.78;;;0.86;100.00
51759;BME280;66684;47.568;18.734;2023-01-15T00:16:17;99756.22;;;0.93;100.00
51759;BME280;66684;47.568;18.734;2023-01-15T00:18:49;99752.66;;;0.91;100.00
51759;BME280;66684;47.568;18.734;2023-01-15T00:21:15;99750.13;;;0.91;100.00
51759;BME280;66684;47.568;18.734;2023-01-15T00:23:41;99757.25;;;0.85;100.00
51759;BME280;66684;47.568;18.734;2023-01-15T00:26:29;99746.44;;;0.88;100.00
51759;BME280;66684;47.568;18.734;2023-01-15T00:29:14;99742.00;;;0.85;100.00
51759;BME280;66684;47.568;18.734;2023-01-15T00:31:40;99740.63;;;0.78;100.00
51759;BME280;66684;47.568;18.734;2023-01-15T00:34:06;99744.06;;;0.69;100.00
51759;BME280;66684;47.568;18.734;2023-01-15T00:36:32;99743.06;;;0.67;100.00
51759;BME280;66684;47.568;18.734;2023-01-15T00:38:59;99742.81;;;0.64;100.00
51759;BME280;66684;47.568;18.734;2023-01-15T00:41:25;99735.31;;;0.65;100.00
51759;BME280;66684;47.568;18.734;2023-01-15T00:43:51;99738.25;;;0.60;100.00
51759;BME280;66684;47.568;18.734;2023-01-15T00:46:18;99736.69;;;0.62;100.00
51759;BME280;66684;47.568;18.734;2023-01-15T00:48:44;99735.94;;;0.63;100.00
51759;BME280;66684;47.568;18.734;2023-01-15T00:51:10;99736.09;;;0.64;100.00
51759;BME280;66684;47.568;18.734;2023-01-15T00:53:36;99736.47;;;0.59;100.00
51759;BME280;66684;47.568;18.734;2023-01-15T00:56:02;99740.00;;;0.61;100.00
51759;BME280;66684;47.568;18.734;2023-01-15T00:58:27;99738.25;;;0.60;100.00
51759;BME280;66684;47.568;18.734;2023-01-15T01:00:55;99730.59;;;0.70;100.00
51759;BME280;66684;47.568;18.734;2023-01-15T01:03:21;99733.16;;;0.60;100.00
51759;BME280;66684;47.568;18.734;2023-01-15T01:05:47;99732.28;;;0.49;100.00
51759;BME280;66684;47.568;18.734;2023-01-15T01:08:13;99735.19;;;0.43;100.00
51759;BME280;66684;47.568;18.734;2023-01-15T01:10:39;99735.69;;;0.49;100.00
51759;BME280;66684;47.568;18.734;2023-01-15T01:13:05;99729.22;;;0.43;100.00
51759;BME280;66684;47.568;18.734;2023-01-15T01:15:35;99722.75;;;0.36;100.00
51759;BME280;66684;47.568;18.734;2023-01-15T01:18:02;99718.94;;;0.41;100.00
51759;BME280;66684;47.568;18.734;2023-01-15T01:20:28;99719.22;;;0.44;100.00
51759;BME280;66684;47.568;18.734;2023-01-15T01:22:54;99715.41;;;0.39;100.00
51759;BME280;66684;47.568;18.734;2023-01-15T01:25:20;99711.59;;;0.34;100.00
51759;BME280;66684;47.568;18.734;2023-01-15T01:27:46;99705.50;;;0.32;100.00
51759;BME280;66684;47.568;18.734;2023-01-15T01:30:13;99700.91;;;0.38;100.00
51759;BME280;66684;47.568;18.734;2023-01-15T01:32:42;99696.34;;;0.44;100.00
51759;BME280;66684;47.568;18.734;2023-01-15T01:35:09;99695.44;;;0.34;100.00
51759;BME280;66684;47.568;18.734;2023-01-15T01:37:35;99687.28;;;0.38;100.00
51759;BME280;66684;47.568;18.734;2023-01-15T01:40:01;99679.03;;;0.40;100.00
51759;BME280;66684;47.568;18.734;2023-01-15T01:42:28;99686.28;;;0.36;100.00
51759;BME280;66684;47.568;18.734;2023-01-15T01:44:58;99684.38;;;0.43;100.00
51759;BME280;66684;47.568;18.734;2023-01-15T01:47:26;99682.84;;;0.45;100.00
51759;BME280;66684;47.568;18.734;2023-01-15T01:49:59;99681.31;;;0.47;100.00
51759;BME280;66684;47.568;18.734;2023-01-15T01:52:31;99674.47;;;0.46;100.00
51759;BME280;66684;47.568;18.734;2023-01-15T01:54:58;99675.19;;;0.56;100.00
51759;BME280;66684;47.568;18.734;2023-01-15T01:57:24;99663.78;;;0.50;100.00
51759;BME280;66684;47.568;18.734;2023-01-15T01:59:50;99658.22;;;0.44;100.00
51759;BME280;66684;47.568;18.734;2023-01-15T02:02:19;99666.06;;;0.47;100.00
51759;BME280;66684;47.568;18.734;2023-01-15T02:04:47;99672.13;;;0.60;100.00
51759;BME280;66684;47.568;18.734;2023-01-15T02:07:13;99667.72;;;0.57;100.00
51759;BME280;66684;47.568;18.734;2023-01-15T02:09:39;99661.09;;;0.59;100.00
51759;BME280;66684;47.568;18.734;2023-01-15T02:12:11;99652.31;;;0.56;100.00
51759;BME280;66684;47.568;18.734;2023-01-15T02:14:58;99660.31;;;0.50;100.00
51759;BME280;66684;47.568;18.734;2023-01-15T02:17:37;99648.38;;;0.49;100.00
51759;BME280;66684;47.568;18.734;2023-01-15T02:20:28;99651.06;;;0.50;100.00
51759;BME280;66684;47.568;18.734;2023-01-15T02:26:01;99636.59;;;0.39;100.00
51759;BME280;66684;47.568;18.734;2023-01-15T02:28:35;99635.19;;;0.43;100.00
51759;BME280;66684;47.568;18.734;2023-01-15T02:33:45;99618.84;;;0.29;100.00
51759;BME280;66684;47.568;18.734;2023-01-15T02:36:15;99611.72;;;0.25;100.00
51759;BME280;66684;47.568;18.734;2023-01-15T02:38:46;99615.53;;;0.30;100.00
51759;BME280;66684;47.568;18.734;2023-01-15T02:41:15;99609.22;;;0.15;100.00
51759;BME280;66684;47.568;18.734;2023-01-15T02:43:46;99611.50;;;0.12;100.00
51759;BME280;66684;47.568;18.734;2023-01-15T02:46:17;99616.44;;;0.10;100.00
51759;BME280;66684;47.568;18.734;2023-01-15T02:48:46;99618.88;;;0.09;100.00
51759;BME280;66684;47.568;18.734;2023-01-15T02:51:18;99613.53;;;0.16;100.00
51759;BME280;66684;47.568;18.734;2023-01-15T02:53:47;99616.06;;;0.16;100.00
51759;BME280;66684;47.568;18.734;2023-01-15T02:56:17;99612.28;;;0.01;100.00
51759;BME280;66684;47.568;18.734;2023-01-15T02:58:44;99609.00;;;-0.09;100.00
51759;BME280;66684;47.568;18.734;2023-01-15T03:01:15;99594.25;;;-0.03;100.00
51759;BME280;66684;47.568;18.734;2023-01-15T03:03:50;99590.81;;;-0.03;100.00
51759;BME280;66684;47.568;18.734;2023-01-15T03:06:26;99591.97;;;0.01;100.00
51759;BME280;66684;47.568;18.734;2023-01-15T03:08:57;99589.16;;;-0.13;100.00
51759;BME280;66684;47.568;18.734;2023-01-15T03:11:23;99582.31;;;-0.14;100.00
51759;BME280;66684;47.568;18.734;2023-01-15T03:16:39;99588.06;;;-0.16;100.00
51759;BME280;66684;47.568;18.734;2023-01-15T03:19:19;99587.56;;;-0.12;100.00
51759;BME280;66684;47.568;18.734;2023-01-15T03:22:08;99581.69;;;-0.11;100.00
51759;BME280;66684;47.568;18.734;2023-01-15T03:27:30;99581.69;;;-0.11;100.00
51759;BME280;66684;47.568;18.734;2023-01-15T03:30:17;99570.12;;;-0.08;100.00
51759;BME280;66684;47.568;18.734;2023-01-15T03:32:43;99572.31;;;-0.12;100.00
51759;BME280;66684;47.568;18.734;2023-01-15T03:38:06;99574.94;;;-0.01;100.00
51759;BME280;66684;47.568;18.734;2023-01-15T03:40:35;99586.75;;;-0.01;100.00
51759;BME280;66684;47.568;18.734;2023-01-15T03:43:06;99584.09;;;-0.03;100.00
51759;BME280;66684;47.568;18.734;2023-01-15T03:51:37;99575.69;;;-0.02;100.00
51759;BME280;66684;47.568;18.734;2023-01-15T03:54:10;99570.38;;;-0.05;100.00
51759;BME280;66684;47.568;18.734;2023-01-15T03:56:53;99575.97;;;0.02;100.00
51759;BME280;66684;47.568;18.734;2023-01-15T03:59:31;99575.31;;;0.04;100.00
51759;BME280;66684;47.568;18.734;2023-01-15T04:02:01;99573.03;;;-0.03;100.00
51759;BME280;66684;47.568;18.734;2023-01-15T04:04:28;99577.75;;;-0.08;100.00
51759;BME280;66684;47.568;18.734;2023-01-15T04:06:55;99587.78;;;-0.19;100.00
51759;BME280;66684;47.568;18.734;2023-01-15T04:09:22;99576.75;;;-0.20;100.00
51759;BME280;66684;47.568;18.734;2023-01-15T04:11:48;99574.47;;;-0.17;100.00
51759;BME280;66684;47.568;18.734;2023-01-15T04:14:14;99569.38;;;-0.17;100.00
51759;BME280;66684;47.568;18.734;2023-01-15T04:16:40;99570.28;;;-0.16;100.00
51759;BME280;66684;47.568;18.734;2023-01-15T04:19:06;99563.94;;;-0.11;100.00
51759;BME280;66684;47.568;18.734;2023-01-15T04:21:32;99568.84;;;-0.03;100.00
51759;BME280;66684;47.568;18.734;2023-01-15T04:23:58;99557.19;;;-0.11;100.00
51759;BME280;66684;47.568;18.734;2023-01-15T04:26:24;99551.22;;;-0.21;100.00
51759;BME280;66684;47.568;18.734;2023-01-15T04:28:50;99553.16;;;-0.19;100.00
51759;BME280;66684;47.568;18.734;2023-01-15T04:31:16;99555.19;;;-0.25;100.00
51759;BME280;66684;47.568;18.734;2023-01-15T04:33:42;99551.84;;;-0.14;100.00
51759;BME280;66684;47.568;18.734;2023-01-15T04:36:08;99556.16;;;-0.03;100.00
51759;BME280;66684;47.568;18.734;2023-01-15T04:38:36;99557.91;;;-0.02;100.00
51759;BME280;66684;47.568;18.734;2023-01-15T04:41:03;99551.06;;;0.08;100.00
51759;BME280;66684;47.568;18.734;2023-01-15T04:43:55;99551.28;;;0.11;100.00
51759;BME280;66684;47.568;18.734;2023-01-15T04:46:38;99555.16;;;-0.05;100.00
51759;BME280;66684;47.568;18.734;2023-01-15T04:49:06;99551.06;;;0.08;100.00
51759;BME280;66684;47.568;18.734;2023-01-15T04:51:33;99545.44;;;0.12;100.00
51759;BME280;66684;47.568;18.734;2023-01-15T04:54:01;99547.97;;;0.12;100.00
51759;BME280;66684;47.568;18.734;2023-01-15T04:56:27;99545.72;;;0.05;100.00
51759;BME280;66684;47.568;18.734;2023-01-15T04:58:53;99545.47;;;0.02;100.00
51759;BME280;66684;47.568;18.734;2023-01-15T05:01:19;99541.78;;;0.08;100.00
51759;BME280;66684;47.568;18.734;2023-01-15T05:03:45;99544.22;;;0.07;100.00
51759;BME280;66684;47.568;18.734;2023-01-15T05:06:11;99545.09;;;0.07;100.00
51759;BME280;66684;47.568;18.734;2023-01-15T05:08:38;99537.59;;;0.09;100.00
51759;BME280;66684;47.568;18.734;2023-01-15T05:11:06;99533.88;;;0.15;100.00
51759;BME280;66684;47.568;18.734;2023-01-15T05:13:32;99529.28;;;0.21;100.00
51759;BME280;66684;47.568;18.734;2023-01-15T05:16:11;99526.88;;;0.23;100.00
51759;BME280;66684;47.568;18.734;2023-01-15T05:18:38;99521.06;;;0.14;100.00
51759;BME280;66684;47.568;18.734;2023-01-15T05:21:04;99518.38;;;0.12;100.00
51759;BME280;66684;47.568;18.734;2023-01-15T05:23:30;99517.75;;;0.15;100.00
51759;BME280;66684;47.568;18.734;2023-01-15T05:25:56;99518.16;;;0.09;100.00
51759;BME280;66684;47.568;18.734;2023-01-15T05:28:21;99516.00;;;0.14;100.00
51759;BME280;66684;47.568;18.734;2023-01-15T05:30:47;99505.06;;;0.05;100.00
51759;BME280;66684;47.568;18.734;2023-01-15T05:33:13;99503.31;;;0.04;100.00
51759;BME280;66684;47.568;18.734;2023-01-15T05:35:39;99496.19;;;0.10;100.00
51759;BME280;66684;47.568;18.734;2023-01-15T05:38:05;99498.06;;;0.12;100.00
51759;BME280;66684;47.568;18.734;2023-01-15T05:40:31;99486.97;;;0.22;100.00
51759;BME280;66684;47.568;18.734;2023-01-15T05:42:57;99487.91;;;0.12;100.00
51759;BME280;66684;47.568;18.734;2023-01-15T05:45:23;99485.13;;;0.09;100.00
51759;BME280;66684;47.568;18.734;2023-01-15T05:47:52;99485.28;;;0.01;100.00
51759;BME280;66684;47.568;18.734;2023-01-15T05:50:18;99482.97;;;0.04;100.00
51759;BME280;66684;47.568;18.734;2023-01-15T05:52:44;99473.19;;;0.08;100.00
51759;BME280;66684;47.568;18.734;2023-01-15T05:55:09;99475.09;;;0.11;100.00
51759;BME280;66684;47.568;18.734;2023-01-15T05:57:35;99471.22;;;0.26;100.00
51759;BME280;66684;47.568;18.734;2023-01-15T06:00:03;99462.09;;;0.18;100.00
51759;BME280;66684;47.568;18.734;2023-01-15T06:02:29;99473.78;;;0.16;100.00
51759;BME280;66684;47.568;18.734;2023-01-15T06:04:55;99468.72;;;0.16;100.00
51759;BME280;66684;47.568;18.734;2023-01-15T06:07:21;99477.59;;;0.21;100.00
51759;BME280;66684;47.568;18.734;2023-01-15T06:09:47;99476.53;;;0.29;100.00
51759;BME280;66684;47.568;18.734;2023-01-15T06:12:12;99466.63;;;0.32;100.00
51759;BME280;66684;47.568;18.734;2023-01-15T06:14:38;99478.84;;;0.26;100.00
51759;BME280;66684;47.568;18.734;2023-01-15T06:17:04;99481.88;;;0.32;100.00
51759;BME280;66684;47.568;18.734;2023-01-15T06:19:30;99480.84;;;0.30;100.00
51759;BME280;66684;47.568;18.734;2023-01-15T06:21:56;99471.62;;;0.42;100.00
51759;BME280;66684;47.568;18.734;2023-01-15T06:24:22;99471.88;;;0.45;100.00
51759;BME280;66684;47.568;18.734;2023-01-15T06:26:48;99468.72;;;0.38;100.00
51759;BME280;66684;47.568;18.734;2023-01-15T06:29:14;99473.13;;;0.50;100.00
51759;BME280;66684;47.568;18.734;2023-01-15T06:31:43;99475.91;;;0.32;100.00
51759;BME280;66684;47.568;18.734;2023-01-15T06:34:09;99463.12;;;0.42;100.00
51759;BME280;66684;47.568;18.734;2023-01-15T06:36:35;99472.41;;;0.41;100.00
51759;BME280;66684;47.568;18.734;2023-01-15T06:39:01;99468.88;;;0.39;100.00
51759;BME280;66684;47.568;18.734;2023-01-15T06:41:27;99468.22;;;0.42;100.00
51759;BME280;66684;47.568;18.734;2023-01-15T06:44:13;99471.12;;;0.46;100.00
51759;BME280;66684;47.568;18.734;2023-01-15T06:47:01;99462.50;;;0.44;100.00
51759;BME280;66684;47.568;18.734;2023-01-15T06:49:47;99466.72;;;0.56;100.00
51759;BME280;66684;47.568;18.734;2023-01-15T06:52:13;99465.69;;;0.64;100.00
51759;BME280;66684;47.568;18.734;2023-01-15T06:54:39;99464.53;;;0.60;100.00
51759;BME280;66684;47.568;18.734;2023-01-15T06:57:05;99466.56;;;0.64;100.00
51759;BME280;66684;47.568;18.734;2023-01-15T06:59:31;99464.81;;;0.63;100.00
51759;BME280;66684;47.568;18.734;2023-01-15T07:01:57;99476.31;;;0.70;100.00
51759;BME280;66684;47.568;18.734;2023-01-15T07:04:23;99471.72;;;0.76;100.00
51759;BME280;66684;47.568;18.734;2023-01-15T07:06:49;99472.34;;;0.73;100.00
51759;BME280;66684;47.568;18.734;2023-01-15T07:09:15;99481.41;;;0.70;100.00
51759;BME280;66684;47.568;18.734;2023-01-15T07:11:41;99471.25;;;0.70;100.00
51759;BME280;66684;47.568;18.734;2023-01-15T07:14:20;99473.47;;;0.77;100.00
51759;BME280;66684;47.568;18.734;2023-01-15T07:16:48;99473.69;;;0.80;100.00
51759;BME280;66684;47.568;18.734;2023-01-15T07:19:14;99475.25;;;0.78;100.00
51759;BME280;66684;47.568;18.734;2023-01-15T07:21:40;99478.00;;;0.81;100.00
51759;BME280;66684;47.568;18.734;2023-01-15T07:24:06;99472.81;;;0.79;100.00
51759;BME280;66684;47.568;18.734;2023-01-15T07:26:32;99463.22;;;0.87;100.00
51759;BME280;66684;47.568;18.734;2023-01-15T07:28:58;99471.41;;;0.83;100.00
51759;BME280;66684;47.568;18.734;2023-01-15T07:31:24;99470.84;;;0.87;100.00
51759;BME280;66684;47.568;18.734;2023-01-15T07:33:50;99468.44;;;0.89;100.00
51759;BME280;66684;47.568;18.734;2023-01-15T07:36:15;99469.53;;;0.92;100.00
51759;BME280;66684;47.568;18.734;2023-01-15T07:38:41;99464.03;;;0.98;100.00
51759;BME280;66684;47.568;18.734;2023-01-15T07:41:07;99461.28;;;1.06;100.00
51759;BME280;66684;47.568;18.734;2023-01-15T07:43:52;99459.00;;;1.10;100.00
51759;BME280;66684;47.568;18.734;2023-01-15T07:46:36;99454.34;;;1.16;100.00
51759;BME280;66684;47.568;18.734;2023-01-15T07:49:21;99456.38;;;1.20;100.00
51759;BME280;66684;47.568;18.734;2023-01-15T07:52:05;99454.47;;;1.17;100.00
51759;BME280;66684;47.568;18.734;2023-01-15T07:54:31;99443.97;;;1.24;100.00
51759;BME280;66684;47.568;18.734;2023-01-15T07:56:57;99447.06;;;1.32;100.00
51759;BME280;66684;47.568;18.734;2023-01-15T07:59:23;99450.97;;;1.27;100.00
51759;BME280;66684;47.568;18.734;2023-01-15T08:01:50;99454.50;;;1.29;100.00
51759;BME280;66684;47.568;18.734;2023-01-15T08:04:16;99448.41;;;1.27;100.00
51759;BME280;66684;47.568;18.734;2023-01-15T08:06:42;99446.75;;;1.27;100.00
51759;BME280;66684;47.568;18.734;2023-01-15T08:09:07;99438.91;;;1.36;100.00
51759;BME280;66684;47.568;18.734;2023-01-15T08:11:33;99442.69;;;1.41;100.00
51759;BME280;66684;47.568;18.734;2023-01-15T08:14:18;99439.25;;;1.41;100.00
51759;BME280;66684;47.568;18.734;2023-01-15T08:17:02;99432.94;;;1.47;100.00
51759;BME280;66684;47.568;18.734;2023-01-15T08:19:28;99438.47;;;1.53;100.00
51759;BME280;66684;47.568;18.734;2023-01-15T08:21:55;99435.59;;;1.60;100.00
51759;BME280;66684;47.568;18.734;2023-01-15T08:24:22;99440.69;;;1.60;100.00
51759;BME280;66684;47.568;18.734;2023-01-15T08:26:48;99444.91;;;1.72;100.00
51759;BME280;66684;47.568;18.734;2023-01-15T08:29:14;99444.69;;;1.69;100.00
51759;BME280;66684;47.568;18.734;2023-01-15T08:31:40;99449.00;;;1.70;100.00
51759;BME280;66684;47.568;18.734;2023-01-15T08:34:07;99448.69;;;1.77;100.00
51759;BME280;66684;47.568;18.734;2023-01-15T08:36:32;99448.44;;;1.74;100.00
51759;BME280;66684;47.568;18.734;2023-01-15T08:38:58;99448.00;;;1.79;100.00
51759;BME280;66684;47.568;18.734;2023-01-15T08:41:24;99448.09;;;1.81;100.00
51759;BME280;66684;47.568;18.734;2023-01-15T08:43:50;99437.13;;;1.82;100.00
51759;BME280;66684;47.568;18.734;2023-01-15T08:46:16;99440.47;;;1.81;100.00
51759;BME280;66684;47.568;18.734;2023-01-15T08:48:42;99440.91;;;1.99;100.00
51759;BME280;66684;47.568;18.734;2023-01-15T08:51:10;99433.59;;;2.03;100.00
51759;BME280;66684;47.568;18.734;2023-01-15T08:53:37;99432.69;;;2.14;100.00
51759;BME280;66684;47.568;18.734;2023-01-15T08:56:04;99423.69;;;2.20;100.00
51759;BME280;66684;47.568;18.734;2023-01-15T08:58:33;99433.12;;;2.21;100.00
51759;BME280;66684;47.568;18.734;2023-01-15T09:01:04;99423.47;;;2.16;100.00
51759;BME280;66684;47.568;18.734;2023-01-15T09:03:31;99412.75;;;2.21;100.00
51759;BME280;66684;47.568;18.734;2023-01-15T09:05:58;99406.50;;;2.29;100.00
51759;BME280;66684;47.568;18.734;2023-01-15T09:08:24;99406.41;;;2.27;100.00
51759;BME280;66684;47.568;18.734;2023-01-15T09:10:50;99389.63;;;2.31;100.00
51759;BME280;66684;47.568;18.734;2023-01-15T09:13:16;99389.19;;;2.36;100.00
51759;BME280;66684;47.568;18.734;2023-01-15T09:15:42;99395.59;;;2.43;100.00
51759;BME280;66684;47.568;18.734;2023-01-15T09:18:09;99385.25;;;2.53;100.00
51759;BME280;66684;47.568;18.734;2023-01-15T09:20:37;99389.19;;;2.61;100.00
51759;BME280;66684;47.568;18.734;2023-01-15T09:23:03;99381.06;;;2.67;100.00
51759;BME280;66684;47.568;18.734;2023-01-15T09:25:28;99372.38;;;2.77;100.00
51759;BME280;66684;47.568;18.734;2023-01-15T09:27:55;99377.28;;;2.74;100.00
51759;BME280;66684;47.568;18.734;2023-01-15T09:30:21;99375.03;;;2.78;100.00
51759;BME280;66684;47.568;18.734;2023-01-15T09:32:47;99362.38;;;2.80;100.00
51759;BME280;66684;47.568;18.734;2023-01-15T09:35:14;99369.47;;;2.84;100.00
51759;BME280;66684;47.568;18.734;2023-01-15T09:37:40;99369.97;;;2.91;100.00
51759;BME280;66684;47.568;18.734;2023-01-15T09:40:18;99360.06;;;2.96;100.00
51759;BME280;66684;47.568;18.734;2023-01-15T09:42:52;99357.31;;;3.06;100.00
51759;BME280;66684;47.568;18.734;2023-01-15T09:54:23;99341.22;;;3.20;100.00
51759;BME280;66684;47.568;18.734;2023-01-15T09:56:56;99340.66;;;3.11;100.00
51759;BME280;66684;47.568;18.734;2023-01-15T09:59:32;99328.59;;;3.22;100.00
51759;BME280;66684;47.568;18.734;2023-01-15T10:02:04;99313.94;;;3.19;100.00
51759;BME280;66684;47.568;18.734;2023-01-15T10:04:42;99321.50;;;3.18;100.00
51759;BME280;66684;47.568;18.734;2023-01-15T10:10:04;99298.91;;;3.37;100.00
51759;BME280;66684;47.568;18.734;2023-01-15T10:12:35;99300.41;;;3.47;100.00
51759;BME280;66684;47.568;18.734;2023-01-15T10:17:39;99278.69;;;3.54;100.00
51759;BME280;66684;47.568;18.734;2023-01-15T10:23:34;99276.56;;;3.74;100.00
51759;BME280;66684;47.568;18.734;2023-01-15T10:26:13;99272.25;;;3.73;100.00
51759;BME280;66684;47.568;18.734;2023-01-15T10:31:21;99265.56;;;3.75;100.00
51759;BME280;66684;47.568;18.734;2023-01-15T10:34:15;99259.16;;;3.82;100.00
51759;BME280;66684;47.568;18.734;2023-01-15T10:36:54;99252.72;;;3.89;100.00
51759;BME280;66684;47.568;18.734;2023-01-15T10:39:35;99251.25;;;3.92;100.00
51759;BME280;66684;47.568;18.734;2023-01-15T10:47:38;99243.44;;;4.04;100.00
51759;BME280;66684;47.568;18.734;2023-01-15T10:50:15;99230.75;;;4.05;100.00
51759;BME280;66684;47.568;18.734;2023-01-15T10:52:46;99225.72;;;4.07;100.00
51759;BME280;66684;47.568;18.734;2023-01-15T10:55:26;99211.97;;;4.05;100.00
51759;BME280;66684;47.568;18.734;2023-01-15T10:58:08;99213.06;;;4.09;100.00
51759;BME280;66684;47.568;18.734;2023-01-15T11:00:37;99217.63;;;4.14;100.00
51759;BME280;66684;47.568;18.734;2023-01-15T11:03:05;99221.72;;;4.25;100.00
51759;BME280;66684;47.568;18.734;2023-01-15T11:05:39;99211.56;;;4.12;100.00
51759;BME280;66684;47.568;18.734;2023-01-15T11:08:15;99208.63;;;4.21;100.00
51759;BME280;66684;47.568;18.734;2023-01-15T11:10:44;99211.69;;;4.28;100.00
51759;BME280;66684;47.568;18.734;2023-01-15T11:13:21;99209.13;;;4.28;100.00
51759;BME280;66684;47.568;18.734;2023-01-15T11:16:17;99197.53;;;4.20;100.00
51759;BME280;66684;47.568;18.734;2023-01-15T11:19:24;99201.09;;;4.22;100.00
51759;BME280;66684;47.568;18.734;2023-01-15T11:24:48;99203.38;;;4.32;100.00
51759;BME280;66684;47.568;18.734;2023-01-15T11:27:18;99199.25;;;4.35;100.00
51759;BME280;66684;47.568;18.734;2023-01-15T11:29:53;99194.13;;;4.35;100.00
51759;BME280;66684;47.568;18.734;2023-01-15T11:32:24;99177.34;;;4.40;100.00
51759;BME280;66684;47.568;18.734;2023-01-15T11:34:53;99167.91;;;4.39;100.00
51759;BME280;66684;47.568;18.734;2023-01-15T11:37:19;99151.69;;;4.38;100.00
51759;BME280;66684;47.568;18.734;2023-01-15T11:39:56;99141.19;;;4.48;100.00
51759;BME280;66684;47.568;18.734;2023-01-15T11:42:22;99130.16;;;4.49;100.00
51759;BME280;66684;47.568;18.734;2023-01-15T11:45:16;99131.41;;;4.56;100.00
51759;BME280;66684;47.568;18.734;2023-01-15T11:48:01;99117.09;;;4.59;100.00
51759;BME280;66684;47.568;18.734;2023-01-15T11:50:53;99104.72;;;4.67;100.00
51759;BME280;66684;47.568;18.734;2023-01-15T11:53:28;99096.41;;;4.71;100.00
51759;BME280;66684;47.568;18.734;2023-01-15T11:56:03;99104.00;;;4.84;100.00
51759;BME280;66684;47.568;18.734;2023-01-15T11:58:33;99107.03;;;4.94;100.00
51759;BME280;66684;47.568;18.734;2023-01-15T12:01:03;99094.09;;;4.91;100.00
51759;BME280;66684;47.568;18.734;2023-01-15T12:03:31;99099.69;;;5.00;100.00
51759;BME280;66684;47.568;18.734;2023-01-15T12:06:02;99088.03;;;5.05;100.00
51759;BME280;66684;47.568;18.734;2023-01-15T12:08:46;99103.94;;;4.99;100.00
51759;BME280;66684;47.568;18.734;2023-01-15T12:17:11;99100.50;;;4.99;100.00
51759;BME280;66684;47.568;18.734;2023-01-15T12:22:56;99099.28;;;5.08;100.00
51759;BME280;66684;47.568;18.734;2023-01-15T12:33:45;99087.16;;;5.21;100.00
51759;BME280;66684;47.568;18.734;2023-01-15T12:36:18;99081.00;;;5.17;100.00
51759;BME280;66684;47.568;18.734;2023-01-15T12:39:00;99080.53;;;5.24;100.00
51759;BME280;66684;47.568;18.734;2023-01-15T12:41:29;99079.56;;;5.38;100.00
51759;BME280;66684;47.568;18.734;2023-01-15T12:44:35;99075.47;;;5.58;100.00
51759;BME280;66684;47.568;18.734;2023-01-15T12:47:27;99067.78;;;5.58;100.00
51759;BME280;66684;47.568;18.734;2023-01-15T12:52:57;99061.78;;;5.58;100.00
51759;BME280;66684;47.568;18.734;2023-01-15T12:58:42;99053.12;;;6.06;100.00
51759;BME280;66684;47.568;18.734;2023-01-15T13:01:32;99051.06;;;5.49;100.00
51759;BME280;66684;47.568;18.734;2023-01-15T13:04:11;99047.69;;;5.50;100.00
51759;BME280;66684;47.568;18.734;2023-01-15T13:06:45;99054.13;;;5.41;100.00
51759;BME280;66684;47.568;18.734;2023-01-15T13:09:43;99044.00;;;5.45;100.00
51759;BME280;66684;47.568;18.734;2023-01-15T13:12:14;99037.19;;;5.61;100.00
51759;BME280;66684;47.568;18.734;2023-01-15T13:14:41;99040.00;;;5.66;100.00
51759;BME280;66684;47.568;18.734;2023-01-15T13:26:19;99021.69;;;5.76;
51759;BME280;66684;47.568;18.734;2023-01-15T13:33:59;99013.88;;;5.57;100.00
51759;BME280;66684;47.568;18.734;2023-01-15T13:36:32;99017.94;;;5.69;100.00
51759;BME280;66684;47.568;18.734;2023-01-15T13:39:02;99019.97;;;5.59;100.00
51759;BME280;66684;47.568;18.734;2023-01-15T13:41:31;99005.38;;;5.58;100.00
51759;BME280;66684;47.568;18.734;2023-01-15T13:44:19;99010.13;;;5.50;100.00
51759;BME280;66684;47.568;18.734;2023-01-15T13:46:47;99005.97;;;5.52;100.00
51759;BME280;66684;47.568;18.734;2023-01-15T13:49:19;99005.50;;;5.43;100.00
51759;BME280;66684;47.568;18.734;2023-01-15T13:51:48;99001.75;;;5.36;100.00
51759;BME280;66684;47.568;18.734;2023-01-15T13:54:19;99006.53;;;5.47;100.00
51759;BME280;66684;47.568;18.734;2023-01-15T13:56:48;98999.09;;;5.51;100.00
51759;BME280;66684;47.568;18.734;2023-01-15T14:01:59;99010.78;;;5.46;100.00
51759;BME280;66684;47.568;18.734;2023-01-15T14:04:37;99008.78;;;5.40;100.00
51759;BME280;66684;47.568;18.734;2023-01-15T14:07:03;99007.12;;;5.41;100.00
51759;BME280;66684;47.568;18.734;2023-01-15T14:09:29;99008.13;;;5.45;100.00
51759;BME280;66684;47.568;18.734;2023-01-15T14:12:12;99011.50;;;5.44;100.00
51759;BME280;66684;47.568;18.734;2023-01-15T14:15:12;99006.22;;;5.40;100.00
51759;BME280;66684;47.568;18.734;2023-01-15T14:29:21;98990.56;;;5.34;100.00
51759;BME280;66684;47.568;18.734;2023-01-15T14:34:29;98986.38;;;5.36;100.00
51759;BME280;66684;47.568;18.734;2023-01-15T14:37:21;98988.31;;;5.24;100.00
51759;BME280;66684;47.568;18.734;2023-01-15T14:39:58;98987.44;;;5.24;100.00
51759;BME280;66684;47.568;18.734;2023-01-15T14:42:28;98986.69;;;5.43;100.00
51759;BME280;66684;47.568;18.734;2023-01-15T14:45:30;98984.12;;;5.43;100.00
51759;BME280;66684;47.568;18.734;2023-01-15T14:47:59;98991.44;;;5.35;100.00
51759;BME280;66684;47.568;18.734;2023-01-15T14:50:38;98990.38;;;5.31;100.00
51759;BME280;66684;47.568;18.734;2023-01-15T14:55:48;98990.25;;;5.28;100.00